Time;durP1;ratioP1;P1;durP2;ratioP2;P2;SDS_P1;SDS_P2;PMS_P1;PMS_P2;Temp;Humidity;BMP_temperature;BMP_pressure;BME280_temperature;BME280_humidity;BME280_pressure;Samples;Min_cycle;Max_cycle;Signal;HPM_P1;HPM_P2
2020/12/15 00:00:59;;;;;;;1999.90;999.90;;;10.00;99.90;;;;;;5113892;28;20074;-85
2020/12/15 00:03:26;;;;;;;1999.90;999.90;;;10.00;99.90;;;;;;5113763;28;20460;-85
2020/12/15 00:05:55;;;;;;;1999.90;999.90;;;10.00;99.90;;;;;;5113438;28;20054;-85
2020/12/15 00:08:22;;;;;;;1999.90;999.90;;;9.90;99.90;;;;;;5122202;27;20097;-85
2020/12/15 00:10:49;;;;;;;1999.90;999.90;;;9.90;99.90;;;;;;5113419;28;20127;-85
2020/12/15 00:13:16;;;;;;;1999.90;999.90;;;10.00;99.90;;;;;;5113557;28;20474;-85
2020/12/15 00:15:43;;;;;;;1999.90;999.90;;;10.00;99.90;;;;;;5120888;27;20085;-85
2020/12/15 00:18:10;;;;;;;1999.90;999.90;;;10.00;99.90;;;;;;5114796;27;20124;-85
2020/12/15 00:20:40;;;;;;;1999.90;999.90;;;10.00;99.90;;;;;;5113099;28;20548;-85
2020/12/15 00:23:08;;;;;;;1999.90;999.90;;;10.00;99.90;;;;;;5100436;28;20064;-85
2020/12/15 00:25:35;;;;;;;1999.90;999.90;;;10.00;99.90;;;;;;5113159;28;20051;-85
2020/12/15 00:28:02;;;;;;;1999.90;999.90;;;10.00;99.90;;;;;;5113353;28;20052;-85
2020/12/15 00:30:31;;;;;;;1999.90;999.90;;;10.00;99.90;;;;;;5113305;28;20135;-85
2020/12/15 00:32:58;;;;;;;1999.90;999.90;;;9.90;99.90;;;;;;5113487;28;20051;-85
2020/12/15 00:35:27;;;;;;;1999.90;999.90;;;9.90;99.90;;;;;;5112386;28;20059;-86
2020/12/15 00:37:54;;;;;;;1999.90;999.90;;;9.90;99.90;;;;;;5113060;28;20502;-85
2020/12/15 00:40:22;;;;;;;1999.90;999.90;;;9.90;99.90;;;;;;5113202;28;20048;-85
2020/12/15 00:42:49;;;;;;;1999.90;999.90;;;9.90;99.90;;;;;;5120459;27;20135;-85
2020/12/15 00:45:16;;;;;;;1999.90;999.90;;;9.90;99.90;;;;;;5114061;28;20051;-85
2020/12/15 00:47:43;;;;;;;1999.90;999.90;;;9.90;99.90;;;;;;5106427;28;20117;-85
2020/12/15 00:50:12;;;;;;;1999.90;999.90;;;9.90;99.90;;;;;;5109123;28;20080;-85
2020/12/15 00:52:39;;;;;;;1999.90;999.90;;;9.90;99.90;;;;;;5112952;28;20047;-85
2020/12/15 00:55:07;;;;;;;1999.90;999.90;;;9.90;99.90;;;;;;5113188;28;20073;-89
2020/12/15 00:57:35;;;;;;;1999.90;999.90;;;9.90;99.90;;;;;;5115345;28;20075;-89
2020/12/15 01:00:07;;;;;;;1999.90;999.90;;;9.90;99.90;;;;;;5121072;28;20126;-90
2020/12/15 01:02:34;;;;;;;1999.90;999.90;;;9.90;99.90;;;;;;5114062;28;20055;-89
2020/12/15 01:05:01;;;;;;;1999.90;999.90;;;9.90;99.90;;;;;;5113781;28;20044;-89
2020/12/15 01:07:28;;;;;;;1999.90;999.90;;;9.90;99.90;;;;;;5116195;28;20135;-89
2020/12/15 01:09:55;;;;;;;1999.90;999.90;;;9.90;99.90;;;;;;5122296;28;20489;-89
2020/12/15 01:12:22;;;;;;;1999.90;999.90;;;9.90;99.90;;;;;;5112969;28;20143;-89
2020/12/15 01:14:50;;;;;;;1999.90;999.90;;;9.90;99.90;;;;;;5113685;28;20098;-89
2020/12/15 01:17:17;;;;;;;1999.90;999.90;;;9.90;99.90;;;;;;5112855;28;20121;-89
2020/12/15 01:19:44;;;;;;;1999.90;999.90;;;9.90;99.90;;;;;;5113046;28;20051;-89
2020/12/15 01:22:11;;;;;;;1999.90;999.90;;;9.90;99.90;;;;;;5113198;28;20048;-85
2020/12/15 01:24:39;;;;;;;1999.90;999.90;;;9.90;99.90;;;;;;5112360;28;20055;-85
2020/12/15 01:27:06;;;;;;;1999.90;999.90;;;9.90;99.90;;;;;;5113378;28;20044;-85
2020/12/15 01:29:33;;;;;;;1999.90;999.90;;;9.90;99.90;;;;;;5114111;28;20123;-86
2020/12/15 01:32:02;;;;;;;1999.90;999.90;;;9.90;99.90;;;;;;5112713;28;20048;-85
2020/12/15 01:34:29;;;;;;;1999.90;999.90;;;9.90;99.90;;;;;;5113781;28;20146;-84
2020/12/15 01:36:56;;;;;;;1999.90;999.90;;;9.90;99.90;;;;;;5115509;28;20192;-85
2020/12/15 01:39:23;;;;;;;1999.90;999.90;;;9.90;99.90;;;;;;5125154;28;20059;-85
2020/12/15 01:41:50;;;;;;;1999.90;999.90;;;9.90;99.90;;;;;;5112445;28;20126;-85
2020/12/15 01:44:17;;;;;;;1999.90;999.90;;;9.80;99.90;;;;;;5113317;28;20072;-85
2020/12/15 01:46:44;;;;;;;1999.90;999.90;;;9.80;99.90;;;;;;5112402;28;20074;-85
2020/12/15 01:49:12;;;;;;;1999.90;999.90;;;9.80;99.90;;;;;;5112762;28;20105;-85
2020/12/15 01:51:39;;;;;;;1999.90;999.90;;;9.80;99.90;;;;;;5114306;28;20379;-85
2020/12/15 01:54:08;;;;;;;1999.90;999.90;;;9.80;99.90;;;;;;5110517;28;20422;-85
2020/12/15 01:56:35;;;;;;;1999.90;999.90;;;9.80;99.90;;;;;;5113859;28;20055;-85
2020/12/15 01:59:04;;;;;;;1999.90;999.90;;;9.80;99.90;;;;;;5112890;28;20086;-90
2020/12/15 02:01:42;;;;;;;1999.90;999.90;;;9.80;99.90;;;;;;5116148;27;20048;-89
2020/12/15 02:04:09;;;;;;;1999.90;999.90;;;9.80;99.90;;;;;;5117090;28;20070;-89
2020/12/15 02:06:37;;;;;;;1999.90;999.90;;;9.80;99.90;;;;;;5122673;27;20069;-88
2020/12/15 02:09:05;;;;;;;1999.90;999.90;;;9.80;99.90;;;;;;5116031;28;20074;-88
2020/12/15 02:11:42;;;;;;;1999.90;999.90;;;9.80;99.90;;;;;;5126922;27;20115;-88
2020/12/15 02:14:09;;;;;;;1999.90;999.90;;;9.80;99.90;;;;;;5116116;27;20134;-89
2020/12/15 02:16:40;;;;;;;1999.90;999.90;;;9.80;99.90;;;;;;5120106;27;20066;-89
2020/12/15 02:19:14;;;;;;;1999.90;999.90;;;9.80;99.90;;;;;;5115734;28;20082;-89
2020/12/15 02:21:57;;;;;;;1999.90;999.90;;;9.80;99.90;;;;;;5115957;28;20043;-88
2020/12/15 02:24:24;;;;;;;1999.90;999.90;;;9.80;99.90;;;;;;5100248;27;20117;-88
2020/12/15 02:26:53;;;;;;;1999.90;999.90;;;9.80;99.90;;;;;;5123847;27;20049;-89
2020/12/15 02:29:20;;;;;;;1999.90;999.90;;;9.80;99.90;;;;;;5115160;28;20483;-88
2020/12/15 02:31:47;;;;;;;1999.90;999.90;;;9.70;99.90;;;;;;5115788;28;20079;-89
2020/12/15 02:34:15;;;;;;;1999.90;999.90;;;9.70;99.90;;;;;;5116826;27;20051;-89
2020/12/15 02:36:42;;;;;;;1999.90;999.90;;;9.70;99.90;;;;;;5120254;27;20202;-89
2020/12/15 02:39:12;;;;;;;1999.90;999.90;;;9.70;99.90;;;;;;5117335;27;20455;-89
2020/12/15 02:41:40;;;;;;;1999.90;999.90;;;9.70;99.90;;;;;;5128800;27;20135;-89
2020/12/15 02:44:09;;;;;;;1999.90;999.90;;;9.70;99.90;;;;;;5113664;27;20051;-89
2020/12/15 02:46:36;;;;;;;1999.90;999.90;;;9.60;99.90;;;;;;5108843;27;20056;-89
2020/12/15 02:49:04;;;;;;;1999.90;999.90;;;9.60;99.90;;;;;;5114162;27;20233;-89
2020/12/15 02:51:32;;;;;;;1999.90;999.90;;;9.70;99.90;;;;;;5107863;28;20130;-89
2020/12/15 02:53:59;;;;;;;1999.90;999.90;;;9.70;99.90;;;;;;5115129;27;20079;-90
2020/12/15 02:56:27;;;;;;;1999.90;999.90;;;9.70;99.90;;;;;;5110698;28;20091;-89
2020/12/15 02:58:54;;;;;;;1999.90;999.90;;;9.70;99.90;;;;;;5111133;27;20079;-89
2020/12/15 03:01:21;;;;;;;1999.90;999.90;;;9.70;99.90;;;;;;5113842;28;20545;-89
2020/12/15 03:03:48;;;;;;;1999.90;999.90;;;9.70;99.90;;;;;;5115080;28;20047;-89
2020/12/15 03:06:15;;;;;;;1999.90;999.90;;;9.70;99.90;;;;;;5118094;27;20058;-89
2020/12/15 03:08:42;;;;;;;1999.90;999.90;;;9.70;99.90;;;;;;5114760;27;20078;-89
2020/12/15 03:11:10;;;;;;;1999.90;999.90;;;9.70;99.90;;;;;;5114548;28;20039;-89
2020/12/15 03:13:38;;;;;;;1999.90;999.90;;;9.70;99.90;;;;;;5113670;28;20090;-90
2020/12/15 03:16:05;;;;;;;1999.90;999.90;;;9.70;99.90;;;;;;5118327;27;20095;-89
2020/12/15 03:18:32;;;;;;;1999.90;999.90;;;9.70;99.90;;;;;;5114492;28;20554;-86
2020/12/15 03:21:02;;;;;;;1999.90;999.90;;;9.70;99.90;;;;;;5114125;28;20117;-85
2020/12/15 03:23:28;;;;;;;1999.90;999.90;;;9.70;99.90;;;;;;5125670;27;20391;-86
2020/12/15 03:25:55;;;;;;;1999.90;999.90;;;9.70;99.90;;;;;;5114764;28;20115;-86
2020/12/15 03:28:23;;;;;;;1999.90;999.90;;;9.70;99.90;;;;;;5125221;27;20145;-86
2020/12/15 03:30:50;;;;;;;1999.90;999.90;;;9.60;99.90;;;;;;5116665;27;20470;-86
2020/12/15 03:33:18;;;;;;;1999.90;999.90;;;9.70;99.90;;;;;;5119957;27;20055;-85
2020/12/15 03:35:45;;;;;;;1999.90;999.90;;;9.70;99.90;;;;;;5114302;28;20496;-85
2020/12/15 03:38:12;;;;;;;1999.90;999.90;;;9.70;99.90;;;;;;5125469;27;20053;-86
2020/12/15 03:40:39;;;;;;;1999.90;999.90;;;9.70;99.90;;;;;;5114922;27;20354;-86
2020/12/15 03:43:07;;;;;;;1999.90;999.90;;;9.70;99.90;;;;;;5114326;27;20055;-86
2020/12/15 03:45:34;;;;;;;1999.90;999.90;;;9.70;99.90;;;;;;5113687;28;20146;-86
2020/12/15 03:48:02;;;;;;;1999.90;999.90;;;9.70;99.90;;;;;;5114111;27;20060;-86
2020/12/15 03:50:29;;;;;;;1999.90;999.90;;;9.70;99.90;;;;;;5113783;28;20070;-86
2020/12/15 03:52:56;;;;;;;1999.90;999.90;;;9.70;99.90;;;;;;5114233;28;20486;-86
2020/12/15 03:55:23;;;;;;;1999.90;999.90;;;9.70;99.90;;;;;;5112194;27;20090;-86
2020/12/15 03:57:51;;;;;;;1999.90;999.90;;;9.70;99.90;;;;;;5116236;27;20114;-86
2020/12/15 04:00:19;;;;;;;1999.90;999.90;;;9.70;99.90;;;;;;5113565;28;20127;-85
2020/12/15 04:02:46;;;;;;;1999.90;999.90;;;9.70;99.90;;;;;;5113364;28;20123;-85
2020/12/15 04:05:15;;;;;;;1999.90;999.90;;;9.60;99.90;;;;;;5112073;28;20559;-86
2020/12/15 04:07:43;;;;;;;1999.90;999.90;;;9.60;99.90;;;;;;5114918;27;20094;-86
2020/12/15 04:10:10;;;;;;;1999.90;999.90;;;9.70;99.90;;;;;;5120481;27;20129;-86
2020/12/15 04:12:49;;;;;;;1999.90;999.90;;;9.70;99.90;;;;;;5116501;27;20437;-86
2020/12/15 04:15:16;;;;;;;1999.90;999.90;;;9.70;99.90;;;;;;5113086;28;20062;-86
2020/12/15 04:17:43;;;;;;;1999.90;999.90;;;9.70;99.90;;;;;;5121871;27;20097;-85
2020/12/15 04:20:11;;;;;;;1999.90;999.90;;;9.70;99.90;;;;;;5126999;27;20050;-86
2020/12/15 04:22:39;;;;;;;1999.90;999.90;;;9.70;99.90;;;;;;5115782;27;20102;-86
2020/12/15 04:25:07;;;;;;;1999.90;999.90;;;9.70;99.90;;;;;;5113345;27;20069;-86
2020/12/15 04:27:34;;;;;;;1999.90;999.90;;;9.70;99.90;;;;;;5115495;27;20074;-86
2020/12/15 04:30:03;;;;;;;1999.90;999.90;;;9.70;99.90;;;;;;5112673;28;20074;-86
2020/12/15 04:32:30;;;;;;;1999.90;999.90;;;9.70;99.90;;;;;;5113085;28;20127;-86
2020/12/15 04:34:57;;;;;;;1999.90;999.90;;;9.70;99.90;;;;;;5112323;28;20082;-85
2020/12/15 04:37:24;;;;;;;1999.90;999.90;;;9.70;99.90;;;;;;5109307;27;20376;-86
2020/12/15 04:39:52;;;;;;;1999.90;999.90;;;9.70;99.90;;;;;;5107961;28;20079;-86
2020/12/15 04:42:19;;;;;;;1999.90;999.90;;;9.70;99.90;;;;;;5107977;28;20127;-86
2020/12/15 04:44:46;;;;;;;1999.90;999.90;;;9.60;99.90;;;;;;5105808;28;20571;-86
2020/12/15 04:47:17;;;;;;;1999.90;999.90;;;9.70;99.90;;;;;;5112522;28;20051;-86
2020/12/15 04:49:55;;;;;;;1999.90;999.90;;;9.70;99.90;;;;;;5112702;28;20064;-86
2020/12/15 04:52:23;;;;;;;1999.90;999.90;;;9.70;99.90;;;;;;5111579;28;20052;-86
2020/12/15 04:54:52;;;;;;;1999.90;999.90;;;9.60;99.90;;;;;;5115169;28;20044;-86
2020/12/15 04:57:21;;;;;;;1999.90;999.90;;;9.70;99.90;;;;;;5110702;28;20466;-86
2020/12/15 04:59:50;;;;;;;1999.90;999.90;;;9.70;99.90;;;;;;5117922;28;20095;-86
2020/12/15 05:02:18;;;;;;;1999.90;999.90;;;9.70;99.90;;;;;;5112035;27;20081;-86
2020/12/15 05:04:49;;;;;;;1999.90;999.90;;;9.70;99.90;;;;;;5104560;28;20498;-86
2020/12/15 05:07:16;;;;;;;1999.90;999.90;;;9.70;99.90;;;;;;5108909;28;20143;-87
2020/12/15 05:09:43;;;;;;;1999.90;999.90;;;9.70;99.90;;;;;;5113197;28;20052;-87
2020/12/15 05:12:12;;;;;;;1999.90;999.90;;;9.70;99.90;;;;;;5112500;28;20048;-86
2020/12/15 05:14:39;;;;;;;1999.90;999.90;;;9.60;99.90;;;;;;5111590;28;20052;-85
2020/12/15 05:17:06;;;;;;;1999.90;999.90;;;9.70;99.90;;;;;;5105665;28;20131;-86
2020/12/15 05:19:43;;;;;;;1999.90;999.90;;;9.70;99.90;;;;;;5112454;28;20482;-86
2020/12/15 05:22:10;;;;;;;1999.90;999.90;;;9.70;99.90;;;;;;5113079;28;20043;-85
2020/12/15 05:24:37;;;;;;;1999.90;999.90;;;9.60;99.90;;;;;;5109712;28;20070;-86
2020/12/15 05:27:04;;;;;;;1999.90;999.90;;;9.70;99.90;;;;;;5114374;28;20489;-86
2020/12/15 05:29:32;;;;;;;1999.90;999.90;;;9.70;99.90;;;;;;5098619;28;20382;-85
2020/12/15 05:31:59;;;;;;;1999.90;999.90;;;9.70;99.90;;;;;;5117964;28;20134;-89
2020/12/15 05:34:27;;;;;;;1999.90;999.90;;;9.70;99.90;;;;;;5112763;28;20064;-89
2020/12/15 05:36:57;;;;;;;1999.90;999.90;;;9.70;99.90;;;;;;5112448;28;20048;-89
2020/12/15 05:39:25;;;;;;;1999.90;999.90;;;9.70;99.90;;;;;;5118574;27;20072;-89
2020/12/15 05:42:06;;;;;;;1999.90;999.90;;;9.70;99.90;;;;;;5117172;28;20048;-88
2020/12/15 05:44:36;;;;;;;1999.90;999.90;;;9.80;99.90;;;;;;5116470;28;20100;-89
2020/12/15 05:47:05;;;;;;;1999.90;999.90;;;9.80;99.90;;;;;;5115843;28;20105;-88
2020/12/15 05:49:33;;;;;;;1999.90;999.90;;;9.80;99.90;;;;;;5119476;27;20052;-89
2020/12/15 05:52:01;;;;;;;1999.90;999.90;;;9.80;99.90;;;;;;5116868;28;20047;-89
2020/12/15 05:54:30;;;;;;;1999.90;999.90;;;9.80;99.90;;;;;;5115390;27;20535;-89
2020/12/15 05:57:03;;;;;;;1999.90;999.90;;;9.80;99.90;;;;;;5098174;28;20039;-89
2020/12/15 05:59:30;;;;;;;1999.90;999.90;;;9.80;99.90;;;;;;5109466;28;20084;-89
2020/12/15 06:02:06;;;;;;;1999.90;999.90;;;9.80;99.90;;;;;;5116091;28;20131;-89
2020/12/15 06:04:35;;;;;;;1999.90;999.90;;;9.80;99.90;;;;;;5120135;27;20138;-89
2020/12/15 06:07:03;;;;;;;1999.90;999.90;;;9.80;99.90;;;;;;5121014;27;20054;-89
2020/12/15 06:09:30;;;;;;;1999.90;999.90;;;9.80;99.90;;;;;;5126359;27;20090;-89
2020/12/15 06:11:58;;;;;;;1999.90;999.90;;;9.80;99.90;;;;;;5116350;28;20060;-89
2020/12/15 06:14:26;;;;;;;1999.90;999.90;;;9.80;99.90;;;;;;5126412;27;20131;-90
2020/12/15 06:16:54;;;;;;;1999.90;999.90;;;9.80;99.90;;;;;;5119221;27;20112;-90
2020/12/15 06:19:30;;;;;;;1999.90;999.90;;;9.80;99.90;;;;;;5120329;27;20059;-89
2020/12/15 06:21:59;;;;;;;1999.90;999.90;;;9.80;99.90;;;;;;5116072;28;20130;-89
2020/12/15 06:24:27;;;;;;;1999.90;999.90;;;9.80;99.90;;;;;;5116712;28;20130;-89
2020/12/15 06:26:58;;;;;;;1999.90;999.90;;;9.80;99.90;;;;;;5117328;27;20114;-89
2020/12/15 06:29:30;;;;;;;1999.90;999.90;;;9.80;99.90;;;;;;5116909;27;20059;-89
2020/12/15 06:31:58;;;;;;;1999.90;999.90;;;9.80;99.90;;;;;;5128806;27;20122;-89
2020/12/15 06:34:27;;;;;;;1999.90;999.90;;;9.80;99.90;;;;;;5117252;27;20052;-89
2020/12/15 06:36:56;;;;;;;1999.90;999.90;;;9.80;99.90;;;;;;5117185;28;20078;-89
2020/12/15 06:39:25;;;;;;;1999.90;999.90;;;9.80;99.90;;;;;;5116612;27;20392;-89
2020/12/15 06:42:00;;;;;;;1999.90;999.90;;;9.80;99.90;;;;;;5115451;28;20040;-89
2020/12/15 06:44:32;;;;;;;1999.90;999.90;;;9.80;99.90;;;;;;5102513;28;20051;-89
2020/12/15 06:47:00;;;;;;;1999.90;999.90;;;9.80;99.90;;;;;;5115686;27;20135;-89
2020/12/15 06:49:33;;;;;;;1999.90;999.90;;;9.80;99.90;;;;;;5102635;28;20052;-90
2020/12/15 06:52:03;;;;;;;1999.90;999.90;;;9.70;99.90;;;;;;5115692;28;20052;-89
2020/12/15 06:54:33;;;;;;;1999.90;999.90;;;9.70;99.90;;;;;;5115210;28;20151;-89
2020/12/15 06:57:05;;;;;;;1999.90;999.90;;;9.70;99.90;;;;;;5109281;27;20051;-89
2020/12/15 06:59:38;;;;;;;1999.90;999.90;;;9.70;99.90;;;;;;5116886;28;20048;-89
2020/12/15 07:02:10;;;;;;;1999.90;999.90;;;9.70;99.90;;;;;;5105908;27;20062;-89
2020/12/15 07:04:45;;;;;;;1999.90;999.90;;;9.70;99.90;;;;;;5114604;27;20315;-89
2020/12/15 07:07:13;;;;;;;1999.90;999.90;;;9.70;99.90;;;;;;5102649;28;20054;-90
2020/12/15 07:09:42;;;;;;;1999.90;999.90;;;9.70;99.90;;;;;;5114847;27;20085;-89
2020/12/15 07:12:12;;;;;;;1999.90;999.90;;;9.70;99.90;;;;;;5116030;27;20086;-89
2020/12/15 07:14:40;;;;;;;1999.90;999.90;;;9.70;99.90;;;;;;5121728;27;20123;-90
2020/12/15 07:17:08;;;;;;;1999.90;999.90;;;9.70;99.90;;;;;;5112232;27;20117;-89
2020/12/15 07:19:35;;;;;;;1999.90;999.90;;;9.80;99.90;;;;;;5108306;28;20498;-90
2020/12/15 07:22:06;;;;;;;1999.90;999.90;;;9.70;99.90;;;;;;5112931;28;20142;-89
2020/12/15 07:24:33;;;;;;;1999.90;999.90;;;9.70;99.90;;;;;;5113908;28;20079;-90
2020/12/15 07:27:02;;;;;;;1999.90;999.90;;;9.70;99.90;;;;;;5114019;27;20052;-89
2020/12/15 07:29:29;;;;;;;1999.90;999.90;;;9.70;99.90;;;;;;5114640;27;20229;-89
2020/12/15 07:31:57;;;;;;;1999.90;999.90;;;9.70;99.90;;;;;;5114734;28;20062;-89
2020/12/15 07:34:24;;;;;;;1999.90;999.90;;;9.70;99.90;;;;;;5113915;28;20086;-89
2020/12/15 07:36:52;;;;;;;1999.90;999.90;;;9.70;99.90;;;;;;5119848;27;20103;-90
2020/12/15 07:39:20;;;;;;;1999.90;999.90;;;9.70;99.90;;;;;;5115123;27;20135;-90
2020/12/15 07:42:01;;;;;;;1999.90;999.90;;;9.70;99.90;;;;;;5117018;27;20075;-90
2020/12/15 07:44:44;;;;;;;1999.90;999.90;;;9.70;99.90;;;;;;5113910;28;20129;-89
2020/12/15 07:47:11;;;;;;;1999.90;999.90;;;9.70;99.90;;;;;;5117805;27;20112;-89
2020/12/15 07:49:38;;;;;;;1999.90;999.90;;;9.70;99.90;;;;;;5113573;28;20489;-89
2020/12/15 07:52:05;;;;;;;1999.90;999.90;;;9.70;99.90;;;;;;5114038;28;20095;-89
2020/12/15 07:54:33;;;;;;;1999.90;999.90;;;9.70;99.90;;;;;;5111916;28;20052;-89
2020/12/15 07:57:01;;;;;;;1999.90;999.90;;;9.70;99.90;;;;;;5113858;28;20051;-89
2020/12/15 07:59:30;;;;;;;1999.90;999.90;;;9.70;99.90;;;;;;5111570;28;20130;-89
2020/12/15 08:01:57;;;;;;;1999.90;999.90;;;9.70;99.90;;;;;;5115225;27;20082;-90
2020/12/15 08:04:25;;;;;;;1999.90;999.90;;;9.70;99.90;;;;;;5113702;28;20542;-87
2020/12/15 08:06:53;;;;;;;1999.90;999.90;;;9.70;99.90;;;;;;5105970;28;20063;-86
2020/12/15 08:09:20;;;;;;;1999.90;999.90;;;9.80;99.90;;;;;;5113715;28;20067;-86
2020/12/15 08:11:49;;;;;;;1999.90;999.90;;;9.70;99.90;;;;;;5103929;28;20617;-86
2020/12/15 08:14:17;;;;;;;1999.90;999.90;;;9.70;99.90;;;;;;5111816;28;20448;-86
2020/12/15 08:16:45;;;;;;;1999.90;999.90;;;9.70;99.90;;;;;;5113720;28;20055;-86
2020/12/15 08:19:14;;;;;;;1999.90;999.90;;;9.70;99.90;;;;;;5112456;28;20138;-86
2020/12/15 08:21:45;;;;;;;1999.90;999.90;;;9.70;99.90;;;;;;5105500;28;20389;-86
2020/12/15 08:24:15;;;;;;;1999.90;999.90;;;9.70;99.90;;;;;;5112893;28;20138;-86
2020/12/15 08:26:43;;;;;;;1999.90;999.90;;;9.70;99.90;;;;;;5111522;28;20047;-86
2020/12/15 08:29:13;;;;;;;1999.90;999.90;;;9.70;99.90;;;;;;5113001;28;20062;-86
2020/12/15 08:31:43;;;;;;;1999.90;999.90;;;9.70;99.90;;;;;;5108028;28;20063;-86
2020/12/15 08:34:12;;;;;;;1999.90;999.90;;;9.70;99.90;;;;;;5113185;28;20130;-86
2020/12/15 08:36:42;;;;;;;1999.90;999.90;;;9.70;99.90;;;;;;5111210;28;20138;-86
2020/12/15 08:39:11;;;;;;;1999.90;999.90;;;9.70;99.90;;;;;;5107040;28;20126;-86
2020/12/15 08:41:46;;;;;;;1999.90;999.90;;;9.70;99.90;;;;;;5099032;28;20051;-86
2020/12/15 08:44:15;;;;;;;1999.90;999.90;;;9.70;99.90;;;;;;5112921;28;20143;-86
2020/12/15 08:46:42;;;;;;;1999.90;999.90;;;9.70;99.90;;;;;;5112235;28;20069;-86
2020/12/15 08:49:14;;;;;;;1999.90;999.90;;;9.70;99.90;;;;;;5113244;28;20071;-86
2020/12/15 08:51:43;;;;;;;1999.90;999.90;;;9.70;99.90;;;;;;5112556;28;20043;-87
2020/12/15 08:54:10;;;;;;;1999.90;999.90;;;9.70;99.90;;;;;;5104501;28;20128;-86
2020/12/15 08:56:37;;;;;;;1999.90;999.90;;;9.70;99.90;;;;;;5100168;28;20056;-86
2020/12/15 08:59:14;;;;;;;1999.90;999.90;;;9.70;99.90;;;;;;5111061;28;20072;-89
2020/12/15 09:01:44;;;;;;;1999.90;999.90;;;9.70;99.90;;;;;;5116565;28;20048;-90
2020/12/15 09:04:12;;;;;;;1999.90;999.90;;;9.60;99.90;;;;;;5111816;28;20079;-90
2020/12/15 09:06:41;;;;;;;1999.90;999.90;;;9.60;99.90;;;;;;5116923;27;20052;-90
2020/12/15 09:09:08;;;;;;;1999.90;999.90;;;9.60;99.90;;;;;;5118758;28;20109;-89
2020/12/15 09:11:36;;;;;;;1999.90;999.90;;;9.60;99.90;;;;;;5120194;28;20063;-90
2020/12/15 09:14:05;;;;;;;1999.90;999.90;;;9.60;99.90;;;;;;5106107;28;20051;-90
2020/12/15 09:16:36;;;;;;;1999.90;999.90;;;9.70;99.90;;;;;;5115162;28;20086;-90
2020/12/15 09:19:12;;;;;;;1999.90;999.90;;;9.60;99.90;;;;;;5115053;28;20075;-91
2020/12/15 09:21:42;;;;;;;1999.90;999.90;;;9.60;99.90;;;;;;5116425;27;20043;-90
2020/12/15 09:24:12;;;;;;;1999.90;999.90;;;9.60;99.90;;;;;;5108638;27;20058;-90
2020/12/15 09:26:39;;;;;;;1999.90;999.90;;;9.60;99.90;;;;;;5119099;27;20059;-90
2020/12/15 09:29:08;;;;;;;1999.90;999.90;;;9.60;99.90;;;;;;5117003;27;20083;-90
2020/12/15 09:31:36;;;;;;;1999.90;999.90;;;9.70;99.90;;;;;;5118549;27;20117;-90
2020/12/15 09:34:05;;;;;;;1999.90;999.90;;;9.70;99.90;;;;;;5115277;27;20100;-90
2020/12/15 09:36:33;;;;;;;1999.90;999.90;;;9.70;99.90;;;;;;5115563;27;20055;-91
2020/12/15 09:39:00;;;;;;;1999.90;999.90;;;9.70;99.90;;;;;;5106007;28;20046;-90
2020/12/15 09:41:27;;;;;;;1999.90;999.90;;;9.70;99.90;;;;;;5122068;27;20047;-90
2020/12/15 09:43:55;;;;;;;1999.90;999.90;;;9.70;99.90;;;;;;5116626;28;20443;-91
2020/12/15 09:46:23;;;;;;;1999.90;999.90;;;9.70;99.90;;;;;;5116364;28;20126;-90
2020/12/15 09:48:50;;;;;;;1999.90;999.90;;;9.70;99.90;;;;;;5116724;27;20051;-91
2020/12/15 09:51:18;;;;;;;1999.90;999.90;;;9.70;99.90;;;;;;5116433;28;20048;-90
2020/12/15 09:53:46;;;;;;;1999.90;999.90;;;9.70;99.90;;;;;;5113743;28;20209;-90
2020/12/15 09:56:15;;;;;;;1999.90;999.90;;;9.70;99.90;;;;;;5117811;27;20047;-90
2020/12/15 09:58:46;;;;;;;1999.90;999.90;;;9.70;99.90;;;;;;5122155;27;20039;-90
2020/12/15 10:01:20;;;;;;;1999.90;999.90;;;9.70;99.90;;;;;;5121318;27;20043;-91
2020/12/15 10:03:47;;;;;;;1999.90;999.90;;;9.70;99.90;;;;;;5123792;27;20074;-91
2020/12/15 10:06:14;;;;;;;1999.90;999.90;;;9.70;99.90;;;;;;5113277;28;20134;-91
2020/12/15 10:08:43;;;;;;;1999.90;999.90;;;9.70;99.90;;;;;;5120672;27;20457;-90
2020/12/15 10:11:14;;;;;;;1999.90;999.90;;;9.80;99.90;;;;;;5112203;27;20062;-91
2020/12/15 10:13:42;;;;;;;1999.90;999.90;;;9.80;99.90;;;;;;5119126;27;20055;-90
2020/12/15 10:16:10;;;;;;;1999.90;999.90;;;9.80;99.90;;;;;;5119617;27;20085;-90
2020/12/15 10:18:38;;;;;;;1999.90;999.90;;;9.80;99.90;;;;;;5115936;27;20043;-88
2020/12/15 10:21:05;;;;;;;1999.90;999.90;;;9.90;99.90;;;;;;5105269;28;20051;-86
2020/12/15 10:23:34;;;;;;;1999.90;999.90;;;9.90;99.90;;;;;;5115219;27;20127;-86
2020/12/15 10:26:01;;;;;;;1999.90;999.90;;;10.00;99.90;;;;;;5114772;28;20044;-87
2020/12/15 10:28:30;;;;;;;1999.90;999.90;;;9.90;99.90;;;;;;5115585;28;20161;-86
2020/12/15 10:30:58;;;;;;;1999.90;999.90;;;10.00;99.90;;;;;;5121485;27;20390;-86
2020/12/15 10:33:26;;;;;;;1999.90;999.90;;;10.00;99.90;;;;;;5125975;27;20116;-86
2020/12/15 10:36:03;;;;;;;1999.90;999.90;;;10.00;99.90;;;;;;5114435;28;20056;-85
2020/12/15 10:38:30;;;;;;;1999.90;999.90;;;10.00;99.90;;;;;;5115080;28;20060;-87
2020/12/15 10:40:58;;;;;;;1999.90;999.90;;;10.00;99.90;;;;;;5114717;28;20089;-86
2020/12/15 10:43:25;;;;;;;1999.90;999.90;;;10.00;99.90;;;;;;5114018;28;20523;-85
2020/12/15 10:45:53;;;;;;;1999.90;999.90;;;10.10;99.90;;;;;;5114855;28;20069;-85
2020/12/15 10:48:20;;;;;;;1999.90;999.90;;;10.10;99.90;;;;;;5114512;28;20075;-86
2020/12/15 10:50:47;;;;;;;1999.90;999.90;;;10.10;99.90;;;;;;5114894;28;20063;-86
2020/12/15 10:53:14;;;;;;;1999.90;999.90;;;10.00;99.90;;;;;;5113891;28;20051;-86
2020/12/15 10:55:45;;;;;;;1999.90;999.90;;;10.10;99.90;;;;;;5114515;28;20116;-86
2020/12/15 10:58:12;;;;;;;1999.90;999.90;;;10.10;99.90;;;;;;5109580;28;20071;-86
2020/12/15 11:00:44;;;;;;;1999.90;999.90;;;10.10;99.90;;;;;;5114157;28;20051;-86
2020/12/15 11:03:12;;;;;;;1999.90;999.90;;;10.10;99.90;;;;;;5115011;28;20086;-87
2020/12/15 11:05:40;;;;;;;1999.90;999.90;;;10.10;99.90;;;;;;5110359;28;20054;-86
2020/12/15 11:08:07;;;;;;;1999.90;999.90;;;10.10;99.90;;;;;;5115453;27;20086;-86
2020/12/15 11:10:34;;;;;;;1999.90;999.90;;;10.10;99.90;;;;;;5118157;27;20060;-86
2020/12/15 11:13:03;;;;;;;1999.90;999.90;;;10.10;99.90;;;;;;5119771;27;20133;-87
2020/12/15 11:15:30;;;;;;;1999.90;999.90;;;10.10;99.90;;;;;;5117250;27;20561;-86
2020/12/15 11:17:58;;;;;;;1999.90;999.90;;;10.20;99.90;;;;;;5123047;27;20449;-86
2020/12/15 11:20:26;;;;;;;1999.90;999.90;;;10.10;99.90;;;;;;5117619;27;20470;-87
2020/12/15 11:22:53;;;;;;;1999.90;999.90;;;10.20;99.90;;;;;;5113387;28;20852;-87
2020/12/15 11:25:20;;;;;;;1999.90;999.90;;;10.20;99.90;;;;;;5114146;28;20493;-86
2020/12/15 11:27:48;;;;;;;1999.90;999.90;;;10.20;99.90;;;;;;5130250;27;20094;-86
2020/12/15 11:30:14;;;;;;;1999.90;999.90;;;10.20;99.90;;;;;;5113168;27;20075;-86
2020/12/15 11:32:41;;;;;;;1999.90;999.90;;;10.20;99.90;;;;;;5120195;27;20129;-86
2020/12/15 11:35:09;;;;;;;1999.90;999.90;;;10.20;99.90;;;;;;5113118;28;20861;-87
2020/12/15 11:37:40;;;;;;;1999.90;999.90;;;10.20;99.90;;;;;;5108014;28;20082;-87
2020/12/15 11:40:07;;;;;;;1999.90;999.90;;;10.20;99.90;;;;;;5113845;28;20094;-86
2020/12/15 11:42:35;;;;;;;1999.90;999.90;;;10.20;99.90;;;;;;5113892;28;20046;-86
2020/12/15 11:45:02;;;;;;;1999.90;999.90;;;10.20;99.90;;;;;;5113599;28;20075;-86
2020/12/15 11:47:30;;;;;;;1999.90;999.90;;;10.20;99.90;;;;;;5115910;27;20183;-86
2020/12/15 11:49:57;;;;;;;1999.90;999.90;;;10.20;99.90;;;;;;5126523;27;20093;-86
2020/12/15 11:52:24;;;;;;;1999.90;999.90;;;10.20;99.90;;;;;;5114169;27;20039;-86
2020/12/15 11:54:52;;;;;;;1999.90;999.90;;;10.20;99.90;;;;;;5114849;27;20048;-86
2020/12/15 11:57:19;;;;;;;1999.90;999.90;;;10.20;99.90;;;;;;5113311;28;20172;-86
2020/12/15 11:59:47;;;;;;;1999.90;999.90;;;10.20;99.90;;;;;;5113534;28;20054;-85
2020/12/15 12:02:14;;;;;;;1999.90;999.90;;;10.20;99.90;;;;;;5111835;27;20048;-86
2020/12/15 12:04:41;;;;;;;1999.90;999.90;;;10.20;99.90;;;;;;5127101;27;20136;-90
2020/12/15 12:07:08;;;;;;;1999.90;999.90;;;10.20;99.90;;;;;;5115007;27;20052;-91
2020/12/15 12:09:36;;;;;;;1999.90;999.90;;;10.20;99.90;;;;;;5109778;28;20054;-91
2020/12/15 12:12:04;;;;;;;1999.90;999.90;;;10.20;99.90;;;;;;5101657;28;20075;-91